createdAt,value
2019-04-22T00:00:53.826Z,1013.00
2019-04-22T00:01:59.375Z,1013.01
2019-04-22T00:02:57.530Z,1013.02
2019-04-22T00:03:55.198Z,1013.02
2019-04-22T00:05:03.226Z,1012.95
2019-04-22T00:06:12.882Z,1012.95
2019-04-22T00:07:18.557Z,1012.97
2019-04-22T00:08:16.848Z,1013.00
2019-04-22T00:09:17.374Z,1012.99
2019-04-22T00:10:19.492Z,1012.97
2019-04-22T00:11:20.455Z,1012.97
2019-04-22T00:12:22.329Z,1012.95
2019-04-22T00:13:21.900Z,1012.94
2019-04-22T00:14:14.966Z,1012.94
2019-04-22T00:15:11.614Z,1012.94
2019-04-22T00:16:19.270Z,1012.89
2019-04-22T00:17:23.384Z,1012.87
2019-04-22T00:18:50.562Z,1012.88
2019-04-22T00:20:14.343Z,1012.87
2019-04-22T00:21:22.557Z,1012.90
2019-04-22T00:22:18.226Z,1012.84
2019-04-22T00:23:12.826Z,1012.85
2019-04-22T00:24:21.469Z,1012.82
2019-04-22T00:25:22.597Z,1012.92
2019-04-22T00:26:16.136Z,1012.82
2019-04-22T00:27:26.125Z,1012.85
2019-04-22T00:28:15.762Z,1012.84
2019-04-22T00:29:39.486Z,1012.82
2019-04-22T00:30:16.570Z,1012.80
2019-04-22T00:31:19.225Z,1012.82
2019-04-22T00:32:11.532Z,1012.82
2019-04-22T00:33:16.419Z,1012.82
2019-04-22T00:34:14.394Z,1012.82
2019-04-22T00:35:12.754Z,1012.82
2019-04-22T00:36:16.398Z,1012.79
2019-04-22T00:37:17.491Z,1012.82
2019-04-22T00:38:19.110Z,1012.76
2019-04-22T00:39:21.312Z,1012.80
2019-04-22T00:40:24.724Z,1012.82
2019-04-22T00:41:13.170Z,1012.79
2019-04-22T00:42:18.133Z,1012.74
2019-04-22T00:43:21.328Z,1012.80
2019-04-22T00:44:21.954Z,1012.74
2019-04-22T00:45:23.985Z,1012.78
2019-04-22T00:46:22.258Z,1012.78
2019-04-22T00:47:21.227Z,1012.72
2019-04-22T00:48:20.697Z,1012.74
2019-04-22T00:50:19.006Z,1012.74
2019-04-22T00:52:16.634Z,1012.75
2019-04-22T00:53:16.333Z,1012.78
2019-04-22T00:54:17.060Z,1012.81
2019-04-22T00:57:20.002Z,1012.83
2019-04-22T00:58:17.838Z,1012.76
2019-04-22T00:59:15.641Z,1012.76
2019-04-22T01:00:21.366Z,1012.76
2019-04-22T01:02:13.349Z,1012.75
2019-04-22T01:03:19.763Z,1012.72
2019-04-22T01:04:19.911Z,1012.74
2019-04-22T01:05:16.491Z,1012.73
2019-04-22T01:06:17.232Z,1012.73
2019-04-22T01:07:18.790Z,1012.71
2019-04-22T01:08:25.419Z,1012.73
2019-04-22T01:09:33.037Z,1012.72
2019-04-22T01:10:20.641Z,1012.74
2019-04-22T01:11:17.288Z,1012.66
2019-04-22T01:12:24.724Z,1012.65
2019-04-22T01:13:19.974Z,1012.62
2019-04-22T01:14:16.107Z,1012.58
2019-04-22T01:15:14.801Z,1012.59
2019-04-22T01:16:17.058Z,1012.61
2019-04-22T01:17:11.650Z,1012.63
2019-04-22T01:18:09.702Z,1012.62
2019-04-22T01:19:12.301Z,1012.59
2019-04-22T01:20:38.530Z,1012.61
2019-04-22T01:22:13.629Z,1012.61
2019-04-22T01:23:14.724Z,1012.58
2019-04-22T01:24:09.118Z,1012.57
2019-04-22T01:25:08.842Z,1012.58
2019-04-22T01:26:09.989Z,1012.52
2019-04-22T01:27:09.350Z,1012.52
2019-04-22T01:28:10.229Z,1012.54
2019-04-22T01:29:00.951Z,1012.55
2019-04-22T01:30:03.712Z,1012.50
2019-04-22T01:31:00.105Z,1012.57
2019-04-22T01:31:51.061Z,1012.50
2019-04-22T01:32:52.902Z,1012.52
2019-04-22T01:34:08.395Z,1012.48
2019-04-22T01:35:05.037Z,1012.53
2019-04-22T01:36:09.327Z,1012.57
2019-04-22T01:37:09.074Z,1012.52
2019-04-22T01:38:11.471Z,1012.52
2019-04-22T01:39:17.557Z,1012.55
2019-04-22T01:40:16.648Z,1012.54
2019-04-22T01:41:16.426Z,1012.52
2019-04-22T01:42:10.805Z,1012.48
2019-04-22T01:43:18.615Z,1012.54
2019-04-22T01:44:22.610Z,1012.53
2019-04-22T01:45:20.531Z,1012.55
2019-04-22T01:46:18.400Z,1012.54
2019-04-22T01:47:18.646Z,1012.52
2019-04-22T01:48:22.797Z,1012.46
2019-04-22T01:49:16.005Z,1012.47
2019-04-22T01:50:16.213Z,1012.44
2019-04-22T01:51:07.636Z,1012.50
2019-04-22T01:52:17.063Z,1012.52
2019-04-22T01:53:24.658Z,1012.51
2019-04-22T01:54:22.325Z,1012.48
2019-04-22T01:55:24.842Z,1012.46
2019-04-22T01:56:13.795Z,1012.43
2019-04-22T01:57:09.914Z,1012.52
2019-04-22T01:58:11.231Z,1012.47
2019-04-22T01:59:06.411Z,1012.46
2019-04-22T02:00:09.049Z,1012.46
2019-04-22T02:01:13.531Z,1012.46
2019-04-22T02:02:16.182Z,1012.41
2019-04-22T02:03:17.660Z,1012.43
2019-04-22T02:04:17.837Z,1012.37
2019-04-22T02:05:17.724Z,1012.35
2019-04-22T02:06:14.933Z,1012.37
2019-04-22T02:07:21.894Z,1012.35
2019-04-22T02:08:25.511Z,1012.39
2019-04-22T02:10:22.856Z,1012.33
2019-04-22T02:11:17.688Z,1012.32
2019-04-22T02:13:15.389Z,1012.29
2019-04-22T02:14:19.844Z,1012.30
2019-04-22T02:15:19.692Z,1012.41
2019-04-22T02:16:15.204Z,1012.38
2019-04-22T02:17:17.477Z,1012.34
2019-04-22T02:18:27.712Z,1012.32
2019-04-22T02:19:30.382Z,1012.34
2019-04-22T02:20:31.155Z,1012.27
2019-04-22T02:21:13.695Z,1012.27
2019-04-22T02:22:19.051Z,1012.20
2019-04-22T02:23:40.789Z,1012.29
2019-04-22T02:24:19.919Z,1012.30
2019-04-22T02:25:15.860Z,1012.28
2019-04-22T02:26:15.550Z,1012.30
2019-04-22T02:27:17.703Z,1012.34
2019-04-22T02:28:28.311Z,1012.39
2019-04-22T02:29:17.172Z,1012.32
2019-04-22T02:30:16.601Z,1012.35
2019-04-22T02:31:25.824Z,1012.37
2019-04-22T02:32:34.731Z,1012.27
2019-04-22T02:33:46.728Z,1012.30
2019-04-22T02:34:21.692Z,1012.32
2019-04-22T02:35:23.862Z,1012.34
2019-04-22T02:36:27.924Z,1012.34
2019-04-22T02:37:29.648Z,1012.27
2019-04-22T02:38:42.643Z,1012.29
2019-04-22T02:39:19.851Z,1012.31
2019-04-22T02:40:19.364Z,1012.28
2019-04-22T02:41:26.101Z,1012.29
2019-04-22T02:42:14.140Z,1012.26
2019-04-22T02:43:34.252Z,1012.26
2019-04-22T02:44:21.808Z,1012.27
2019-04-22T02:45:18.838Z,1012.29
2019-04-22T02:47:31.467Z,1012.27
2019-04-22T02:48:34.025Z,1012.26
2019-04-22T02:50:37.416Z,1012.22
2019-04-22T02:53:36.545Z,1012.20
2019-04-22T02:55:27.651Z,1012.19
2019-04-22T02:56:27.341Z,1012.18
2019-04-22T02:57:35.802Z,1012.18
2019-04-22T02:58:25.720Z,1012.18
2019-04-22T02:59:27.918Z,1012.19
2019-04-22T03:00:21.666Z,1012.11
2019-04-22T03:02:43.034Z,1012.12
2019-04-22T03:03:31.119Z,1012.06
2019-04-22T03:05:27.105Z,1012.05
2019-04-22T03:06:30.769Z,1012.09
2019-04-22T03:07:20.762Z,1012.07
2019-04-22T03:08:23.714Z,1012.09
2019-04-22T03:09:28.381Z,1012.09
2019-04-22T03:10:26.573Z,1012.13
2019-04-22T03:11:24.913Z,1012.15
2019-04-22T03:14:22.650Z,1012.12
2019-04-22T03:15:15.982Z,1012.15
2019-04-22T03:16:29.686Z,1012.06
2019-04-22T03:17:26.129Z,1012.19
2019-04-22T03:18:35.852Z,1012.03
2019-04-22T03:19:34.066Z,1012.15
2019-04-22T03:20:18.003Z,1012.14
2019-04-22T03:21:17.944Z,1012.16
2019-04-22T03:22:24.072Z,1012.12
2019-04-22T03:23:36.839Z,1012.12
2019-04-22T03:27:19.126Z,1012.09
2019-04-22T03:28:27.387Z,1012.17
2019-04-22T03:29:18.087Z,1012.14
2019-04-22T03:31:40.337Z,1012.16
2019-04-22T03:33:20.110Z,1012.12
2019-04-22T03:35:37.099Z,1012.16
2019-04-22T03:37:00.389Z,1012.17
2019-04-22T03:38:18.245Z,1012.24
2019-04-22T03:40:30.259Z,1012.11
2019-04-22T03:41:27.233Z,1012.17
2019-04-22T03:42:09.921Z,1012.11
2019-04-22T03:43:43.773Z,1012.11
2019-04-22T03:44:33.823Z,1012.13
2019-04-22T03:46:21.619Z,1012.16
2019-04-22T03:47:31.823Z,1012.10
2019-04-22T03:48:16.058Z,1012.01
2019-04-22T03:51:25.439Z,1012.07
2019-04-22T03:54:29.806Z,1012.02
2019-04-22T03:56:56.856Z,1012.03
2019-04-22T03:57:40.479Z,1012.00
2019-04-22T03:58:11.132Z,1012.02
2019-04-22T03:59:29.569Z,1012.00
2019-04-22T04:00:26.512Z,1011.98
2019-04-22T04:01:30.545Z,1012.02
2019-04-22T04:03:19.096Z,1012.00
2019-04-22T04:04:23.987Z,1011.99
2019-04-22T04:05:33.172Z,1012.04
2019-04-22T04:06:17.386Z,1011.96
2019-04-22T04:07:38.312Z,1011.97
2019-04-22T04:08:20.171Z,1011.88
2019-04-22T04:11:26.950Z,1011.93
2019-04-22T04:13:17.600Z,1012.03
2019-04-22T04:16:21.311Z,1012.11
2019-04-22T04:17:21.831Z,1012.11
2019-04-22T04:18:30.683Z,1012.08
2019-04-22T04:19:31.364Z,1011.99
2019-04-22T04:22:33.975Z,1012.09
2019-04-22T04:26:26.779Z,1012.03
2019-04-22T04:29:35.694Z,1012.09
2019-04-22T04:30:30.049Z,1012.08
2019-04-22T04:31:25.302Z,1012.03
2019-04-22T04:34:37.524Z,1012.08
2019-04-22T04:36:18.628Z,1012.09
2019-04-22T04:37:41.001Z,1012.05
2019-04-22T04:39:01.078Z,1012.13
2019-04-22T04:39:26.807Z,1012.12
2019-04-22T04:43:16.151Z,1012.17
2019-04-22T04:44:22.757Z,1012.22
2019-04-22T04:45:32.046Z,1012.16
2019-04-22T04:46:26.771Z,1012.25
2019-04-22T04:47:35.338Z,1012.15
2019-04-22T04:48:21.327Z,1012.19
2019-04-22T04:51:24.388Z,1012.15
2019-04-22T04:52:27.643Z,1012.23
2019-04-22T04:53:20.520Z,1012.22
2019-04-22T04:55:24.090Z,1012.17
2019-04-22T04:56:36.258Z,1012.16
2019-04-22T04:57:32.005Z,1012.17
2019-04-22T04:58:36.077Z,1012.25
2019-04-22T04:59:29.895Z,1012.20
2019-04-22T05:01:27.074Z,1012.31
2019-04-22T05:03:29.731Z,1012.23
2019-04-22T05:05:16.828Z,1012.34
2019-04-22T05:06:30.758Z,1012.32
2019-04-22T05:08:28.897Z,1012.37
2019-04-22T05:11:24.467Z,1012.38
2019-04-22T05:13:39.550Z,1012.42
2019-04-22T05:15:21.158Z,1012.34
2019-04-22T05:17:18.553Z,1012.38
2019-04-22T05:20:21.495Z,1012.39
2019-04-22T05:22:14.918Z,1012.40
2019-04-22T05:23:20.285Z,1012.37
2019-04-22T05:24:16.846Z,1012.38
2019-04-22T05:26:21.837Z,1012.36
2019-04-22T05:27:20.501Z,1012.35
2019-04-22T05:28:15.101Z,1012.35
2019-04-22T05:29:17.014Z,1012.42
2019-04-22T05:30:23.183Z,1012.43
2019-04-22T05:31:16.121Z,1012.42
2019-04-22T05:32:31.256Z,1012.41
2019-04-22T05:33:16.754Z,1012.33
2019-04-22T05:34:17.355Z,1012.41
2019-04-22T05:35:14.483Z,1012.45
2019-04-22T05:36:13.006Z,1012.44
2019-04-22T05:37:14.828Z,1012.42
2019-04-22T05:39:14.187Z,1012.41
2019-04-22T05:40:20.137Z,1012.42
2019-04-22T05:41:10.155Z,1012.45
2019-04-22T05:42:14.038Z,1012.43
2019-04-22T05:43:15.913Z,1012.54
2019-04-22T05:44:14.433Z,1012.46
2019-04-22T05:45:17.309Z,1012.45
2019-04-22T05:46:09.641Z,1012.52
2019-04-22T05:47:14.691Z,1012.50
2019-04-22T05:48:14.527Z,1012.50
2019-04-22T05:49:19.284Z,1012.54
2019-04-22T05:50:13.857Z,1012.53
2019-04-22T05:51:09.785Z,1012.53
2019-04-22T05:52:14.826Z,1012.57
2019-04-22T05:53:07.213Z,1012.65
2019-04-22T05:54:14.593Z,1012.60
2019-04-22T05:55:15.701Z,1012.61
2019-04-22T05:56:20.748Z,1012.67
2019-04-22T05:57:14.506Z,1012.67
2019-04-22T05:58:15.327Z,1012.68
2019-04-22T05:59:12.538Z,1012.62
2019-04-22T06:00:14.637Z,1012.69
2019-04-22T06:03:08.556Z,1012.62
2019-04-22T06:04:11.304Z,1012.69
2019-04-22T06:05:10.125Z,1012.61
2019-04-22T06:06:16.728Z,1012.65
2019-04-22T06:07:13.667Z,1012.71
2019-04-22T06:08:10.230Z,1012.70
2019-04-22T06:09:12.552Z,1012.72
2019-04-22T06:10:24.399Z,1012.74
2019-04-22T06:11:18.445Z,1012.72
2019-04-22T06:12:04.892Z,1012.74
2019-04-22T06:13:04.391Z,1012.68
2019-04-22T06:14:12.351Z,1012.70
2019-04-22T06:15:14.657Z,1012.70
2019-04-22T06:16:12.465Z,1012.76
2019-04-22T06:17:15.682Z,1012.72
2019-04-22T06:18:16.199Z,1012.68
2019-04-22T06:19:13.996Z,1012.69
2019-04-22T06:20:10.602Z,1012.70
2019-04-22T06:21:11.411Z,1012.69
2019-04-22T06:22:25.271Z,1012.70
2019-04-22T06:23:19.073Z,1012.64
2019-04-22T06:24:18.972Z,1012.65
2019-04-22T06:25:22.716Z,1012.71
2019-04-22T06:26:27.217Z,1012.63
2019-04-22T06:27:18.735Z,1012.58
2019-04-22T06:28:26.341Z,1012.62
2019-04-22T06:29:15.293Z,1012.67
2019-04-22T06:30:17.288Z,1012.70
2019-04-22T06:31:15.751Z,1012.62
2019-04-22T06:33:16.320Z,1012.61
2019-04-22T06:34:20.775Z,1012.64
2019-04-22T06:35:18.498Z,1012.62
2019-04-22T06:36:15.755Z,1012.59
2019-04-22T06:37:12.822Z,1012.48
2019-04-22T06:39:14.718Z,1012.55
2019-04-22T06:40:16.488Z,1012.62
2019-04-22T06:41:15.058Z,1012.58
2019-04-22T06:42:13.395Z,1012.50
2019-04-22T06:43:15.836Z,1012.53
2019-04-22T06:45:15.560Z,1012.53
2019-04-22T06:46:14.685Z,1012.47
2019-04-22T06:47:14.799Z,1012.50
2019-04-22T06:49:18.749Z,1012.57
2019-04-22T06:50:16.393Z,1012.53
2019-04-22T06:51:15.279Z,1012.56
2019-04-22T06:52:15.283Z,1012.56
2019-04-22T06:53:09.129Z,1012.61
2019-04-22T06:54:17.617Z,1012.58
2019-04-22T06:55:15.144Z,1012.62
2019-04-22T06:56:11.193Z,1012.61
2019-04-22T06:57:11.618Z,1012.57
2019-04-22T06:58:10.699Z,1012.55
2019-04-22T06:59:14.734Z,1012.65
2019-04-22T07:00:10.623Z,1012.61
2019-04-22T07:01:19.359Z,1012.60
2019-04-22T07:02:16.480Z,1012.55
2019-04-22T07:03:30.085Z,1012.59
2019-04-22T07:04:14.876Z,1012.69
2019-04-22T07:05:28.488Z,1012.65
2019-04-22T07:06:17.546Z,1012.63
2019-04-22T07:07:12.736Z,1012.61
2019-04-22T07:08:30.407Z,1012.64
2019-04-22T07:10:23.801Z,1012.61
2019-04-22T07:11:08.953Z,1012.62
2019-04-22T07:12:12.073Z,1012.64
2019-04-22T07:13:17.985Z,1012.70
2019-04-22T07:14:09.394Z,1012.66
2019-04-22T07:15:24.470Z,1012.64
2019-04-22T07:16:11.450Z,1012.65
2019-04-22T07:19:13.834Z,1012.67
2019-04-22T07:20:10.684Z,1012.65
2019-04-22T07:21:06.719Z,1012.64
2019-04-22T07:22:11.263Z,1012.70
2019-04-22T07:23:13.760Z,1012.69
2019-04-22T07:24:27.474Z,1012.58
2019-04-22T07:25:10.526Z,1012.60
2019-04-22T07:26:07.610Z,1012.58
2019-04-22T07:27:12.915Z,1012.60
2019-04-22T07:28:11.210Z,1012.52
2019-04-22T07:29:17.274Z,1012.57
2019-04-22T07:30:16.512Z,1012.56
2019-04-22T07:31:14.319Z,1012.54
2019-04-22T07:32:47.715Z,1012.56
2019-04-22T07:34:24.942Z,1012.52
2019-04-22T07:35:17.963Z,1012.52
2019-04-22T07:36:30.695Z,1012.48
2019-04-22T07:37:22.796Z,1012.45
2019-04-22T07:38:18.720Z,1012.54
2019-04-22T07:39:09.833Z,1012.53
2019-04-22T07:40:13.790Z,1012.53
2019-04-22T07:41:14.697Z,1012.47
2019-04-22T07:42:16.653Z,1012.41
2019-04-22T07:43:12.185Z,1012.52
2019-04-22T07:44:20.701Z,1012.61
2019-04-22T07:45:10.280Z,1012.53
2019-04-22T07:46:27.913Z,1012.54
2019-04-22T07:48:22.494Z,1012.51
2019-04-22T07:49:10.512Z,1012.54
2019-04-22T07:50:22.973Z,1012.49
2019-04-22T07:52:09.848Z,1012.48
2019-04-22T07:53:13.291Z,1012.52
2019-04-22T07:54:16.438Z,1012.48
2019-04-22T07:55:07.370Z,1012.50
2019-04-22T07:56:15.739Z,1012.53
2019-04-22T07:57:22.733Z,1012.46
2019-04-22T07:58:11.727Z,1012.51
2019-04-22T07:59:13.914Z,1012.41
2019-04-22T08:01:14.086Z,1012.43
2019-04-22T08:02:09.358Z,1012.46
2019-04-22T08:03:13.263Z,1012.44
2019-04-22T08:04:16.004Z,1012.39
2019-04-22T08:06:17.293Z,1012.49
2019-04-22T08:07:14.422Z,1012.41
2019-04-22T08:08:17.465Z,1012.43
2019-04-22T08:09:13.953Z,1012.41
2019-04-22T08:10:15.382Z,1012.39
2019-04-22T08:11:21.583Z,1012.38
2019-04-22T08:12:04.144Z,1012.40
2019-04-22T08:13:19.655Z,1012.43
2019-04-22T08:14:18.875Z,1012.32
2019-04-22T08:15:13.074Z,1012.43
2019-04-22T08:16:10.680Z,1012.35
2019-04-22T08:17:38.863Z,1012.41
2019-04-22T08:18:08.612Z,1012.33
2019-04-22T08:19:16.926Z,1012.38
2019-04-22T08:21:12.291Z,1012.29
2019-04-22T08:22:07.911Z,1012.39
2019-04-22T08:23:14.181Z,1012.34
2019-04-22T08:24:14.720Z,1012.31
2019-04-22T08:25:04.243Z,1012.43
2019-04-22T08:26:05.390Z,1012.35
2019-04-22T08:27:10.353Z,1012.29
2019-04-22T08:28:13.261Z,1012.32
2019-04-22T08:29:14.849Z,1012.40
2019-04-22T08:30:14.156Z,1012.43
2019-04-22T08:31:14.870Z,1012.43
2019-04-22T08:32:32.691Z,1012.44
2019-04-22T08:33:16.159Z,1012.38
2019-04-22T08:34:14.151Z,1012.40
2019-04-22T08:35:18.669Z,1012.37
2019-04-22T08:36:18.395Z,1012.37
2019-04-22T08:38:11.422Z,1012.33
2019-04-22T08:39:16.750Z,1012.32
2019-04-22T08:40:17.006Z,1012.37
2019-04-22T08:41:16.541Z,1012.31
2019-04-22T08:42:23.922Z,1012.40
2019-04-22T08:43:12.646Z,1012.25
2019-04-22T08:44:07.974Z,1012.33
2019-04-22T08:45:18.687Z,1012.38
2019-04-22T08:46:17.091Z,1012.31
2019-04-22T08:48:07.715Z,1012.27
2019-04-22T08:49:08.208Z,1012.35
2019-04-22T08:51:18.514Z,1012.30
2019-04-22T08:53:16.061Z,1012.19
2019-04-22T08:54:28.295Z,1012.34
2019-04-22T08:55:11.335Z,1012.30
2019-04-22T08:56:24.041Z,1012.25
2019-04-22T08:57:13.867Z,1012.25
2019-04-22T08:58:20.265Z,1012.37
2019-04-22T09:00:08.396Z,1012.26
2019-04-22T09:01:15.952Z,1012.28
2019-04-22T09:02:13.301Z,1012.22
2019-04-22T09:03:10.695Z,1012.26
2019-04-22T09:55:19.833Z,1012.90
2019-04-22T09:56:18.193Z,1012.83
2019-04-22T09:57:18.357Z,1012.89
2019-04-22T09:58:16.270Z,1012.85
2019-04-22T09:59:13.557Z,1012.86
2019-04-22T10:00:16.947Z,1012.90
2019-04-22T10:03:16.635Z,1012.77
2019-04-22T10:04:14.263Z,1012.81
2019-04-22T10:05:20.841Z,1012.80
2019-04-22T10:06:23.179Z,1012.82
2019-04-22T10:07:17.554Z,1012.71
2019-04-22T10:08:24.347Z,1012.67
2019-04-22T10:10:17.123Z,1012.64
2019-04-22T10:11:21.078Z,1012.64
2019-04-22T10:12:19.038Z,1012.68
2019-04-22T10:13:19.051Z,1012.62
2019-04-22T10:14:13.659Z,1012.59
2019-04-22T10:15:13.889Z,1012.54
2019-04-22T10:16:19.692Z,1012.59
2019-04-22T10:17:15.624Z,1012.54
2019-04-22T10:18:19.337Z,1012.51
2019-04-22T10:19:31.367Z,1012.52
2019-04-22T10:20:15.075Z,1012.46
2019-04-22T10:21:16.495Z,1012.44
2019-04-22T10:22:23.866Z,1012.42
2019-04-22T10:23:16.443Z,1012.45
2019-04-22T10:24:13.845Z,1012.34
2019-04-22T10:25:32.787Z,1012.36
2019-04-22T10:26:16.266Z,1012.39
2019-04-22T10:27:13.990Z,1012.39
2019-04-22T10:28:14.818Z,1012.38
2019-04-22T10:30:08.985Z,1012.35
2019-04-22T10:31:21.899Z,1012.23
2019-04-22T10:32:11.252Z,1012.40
2019-04-22T10:33:13.206Z,1012.32
2019-04-22T10:34:02.730Z,1012.42
2019-04-22T10:34:57.234Z,1012.33
2019-04-22T10:35:49.644Z,1012.24
2019-04-22T10:36:52.778Z,1012.37
2019-04-22T10:37:50.065Z,1012.24
2019-04-22T10:38:48.699Z,1012.31
2019-04-22T10:39:55.098Z,1012.30
2019-04-22T10:40:50.241Z,1012.25
2019-04-22T10:41:48.661Z,1012.27
2019-04-22T10:42:47.618Z,1012.26
2019-04-22T10:43:47.689Z,1012.19
2019-04-22T10:44:48.535Z,1012.19
2019-04-22T10:45:48.087Z,1012.15
2019-04-22T10:46:48.295Z,1012.17
2019-04-22T10:47:48.027Z,1012.22
2019-04-22T10:48:48.357Z,1012.27
2019-04-22T10:49:48.636Z,1012.15
2019-04-22T10:50:48.739Z,1012.18
2019-04-22T10:51:48.711Z,1012.14
2019-04-22T10:52:47.779Z,1012.11
2019-04-22T10:53:47.488Z,1012.16
2019-04-22T10:54:47.474Z,1012.09
2019-04-22T10:55:49.296Z,1012.13
2019-04-22T10:56:48.703Z,1012.18
2019-04-22T10:57:48.629Z,1012.12
2019-04-22T10:58:48.812Z,1012.15
2019-04-22T10:59:47.427Z,1012.23
2019-04-22T11:00:47.477Z,1012.25
2019-04-22T11:01:48.659Z,1012.20
2019-04-22T11:02:47.849Z,1012.16
2019-04-22T11:03:48.953Z,1012.14
2019-04-22T11:04:48.136Z,1012.15
2019-04-22T11:05:48.410Z,1012.17
2019-04-22T11:06:53.063Z,1012.13
2019-04-22T11:07:54.005Z,1012.10
2019-04-22T11:08:53.980Z,1012.06
2019-04-22T11:09:58.182Z,1012.11
2019-04-22T11:11:04.673Z,1012.14
2019-04-22T11:11:56.548Z,1012.13
2019-04-22T11:12:49.307Z,1012.17
2019-04-22T11:13:47.557Z,1012.11
2019-04-22T11:14:47.649Z,1012.11
2019-04-22T11:15:48.694Z,1012.09
2019-04-22T11:16:47.696Z,1012.11
2019-04-22T11:17:47.318Z,1011.99
2019-04-22T11:18:47.623Z,1012.12
2019-04-22T11:19:47.893Z,1012.08
2019-04-22T11:20:47.448Z,1012.07
2019-04-22T11:21:59.931Z,1012.06
2019-04-22T11:22:48.975Z,1012.08
2019-04-22T11:23:47.169Z,1012.04
2019-04-22T11:24:48.586Z,1012.10
2019-04-22T11:25:48.018Z,1012.10
2019-04-22T11:26:47.143Z,1012.12
2019-04-22T11:27:47.284Z,1012.03
2019-04-22T11:28:47.640Z,1012.00
2019-04-22T11:29:47.673Z,1012.00
2019-04-22T11:30:48.220Z,1011.97
2019-04-22T11:31:48.250Z,1011.98
2019-04-22T11:32:48.587Z,1011.99
2019-04-22T11:33:48.305Z,1011.91
2019-04-22T11:34:47.113Z,1011.98
2019-04-22T11:35:47.954Z,1012.05
2019-04-22T11:36:47.238Z,1012.03
2019-04-22T11:37:48.552Z,1011.93
2019-04-22T11:38:55.215Z,1011.97
2019-04-22T11:40:00.216Z,1011.98
2019-04-22T11:40:52.289Z,1011.95
2019-04-22T11:41:47.986Z,1011.95
2019-04-22T11:42:48.206Z,1011.89
2019-04-22T11:43:47.352Z,1011.82
2019-04-22T11:44:47.488Z,1011.93
2019-04-22T11:45:47.134Z,1011.83
2019-04-22T11:46:47.468Z,1011.90
2019-04-22T11:47:47.597Z,1011.90
2019-04-22T11:48:47.751Z,1011.84
2019-04-22T11:49:47.947Z,1011.89
2019-04-22T11:50:48.133Z,1012.00
2019-04-22T11:51:47.806Z,1011.96
2019-04-22T11:52:46.987Z,1012.01
2019-04-22T11:53:47.080Z,1011.92
2019-04-22T11:54:46.845Z,1011.90
2019-04-22T11:55:46.874Z,1011.88
2019-04-22T11:56:47.305Z,1011.86
2019-04-22T11:57:47.741Z,1011.90
2019-04-22T11:58:47.023Z,1011.84
2019-04-22T11:59:47.045Z,1011.88
2019-04-22T12:00:46.790Z,1011.92
2019-04-22T12:01:46.881Z,1011.87
2019-04-22T12:02:47.142Z,1011.89
2019-04-22T12:03:46.751Z,1011.86
2019-04-22T12:04:47.723Z,1011.85
2019-04-22T12:05:47.989Z,1011.82
2019-04-22T12:06:46.729Z,1011.76
2019-04-22T12:07:47.069Z,1011.76
2019-04-22T12:08:47.801Z,1011.83
2019-04-22T12:09:47.826Z,1011.81
2019-04-22T12:10:51.689Z,1011.75
2019-04-22T12:11:47.696Z,1011.71
2019-04-22T12:12:48.328Z,1011.76
2019-04-22T12:13:46.654Z,1011.81
2019-04-22T12:14:48.015Z,1011.83
2019-04-22T12:15:46.879Z,1011.85
2019-04-22T12:16:47.634Z,1011.78
2019-04-22T12:17:46.621Z,1011.70
2019-04-22T12:18:47.212Z,1011.66
2019-04-22T12:19:48.219Z,1011.67
2019-04-22T12:20:47.473Z,1011.70
2019-04-22T12:21:46.846Z,1011.70
2019-04-22T12:22:47.307Z,1011.72
2019-04-22T12:23:47.269Z,1011.74
2019-04-22T12:24:47.903Z,1011.66
2019-04-22T12:25:52.297Z,1011.65
2019-04-22T12:26:48.399Z,1011.64
2019-04-22T12:27:47.275Z,1011.65
2019-04-22T12:28:46.827Z,1011.66
2019-04-22T12:29:47.052Z,1011.53
2019-04-22T12:30:47.774Z,1011.52
2019-04-22T12:31:47.260Z,1011.67
2019-04-22T12:32:46.448Z,1011.64
2019-04-22T12:33:47.629Z,1011.69
2019-04-22T12:34:47.160Z,1011.55
2019-04-22T12:35:46.519Z,1011.52
2019-04-22T12:36:46.861Z,1011.59
2019-04-22T12:37:51.484Z,1011.51
2019-04-22T12:38:47.671Z,1011.50
2019-04-22T12:39:48.087Z,1011.45
2019-04-22T12:40:54.424Z,1011.38
2019-04-22T12:41:47.353Z,1011.39
2019-04-22T12:42:47.173Z,1011.37
2019-04-22T12:43:47.387Z,1011.45
2019-04-22T12:44:47.708Z,1011.35
2019-04-22T12:45:47.870Z,1011.32
2019-04-22T12:46:46.312Z,1011.40
2019-04-22T12:47:46.428Z,1011.38
2019-04-22T12:48:46.885Z,1011.32
2019-04-22T12:49:54.417Z,1011.41
2019-04-22T12:50:50.042Z,1011.29
2019-04-22T12:51:47.365Z,1011.35
2019-04-22T12:52:53.275Z,1011.30
2019-04-22T12:53:48.758Z,1011.34
2019-04-22T12:54:46.889Z,1011.30
2019-04-22T12:55:46.213Z,1011.29
2019-04-22T12:56:46.213Z,1011.36
2019-04-22T12:57:46.510Z,1011.29
2019-04-22T12:58:47.556Z,1011.24
2019-04-22T12:59:46.173Z,1011.31
2019-04-22T13:00:46.157Z,1011.22
2019-04-22T13:01:46.862Z,1011.21
2019-04-22T13:02:47.308Z,1011.17
2019-04-22T13:03:46.495Z,1011.15
2019-04-22T13:04:46.123Z,1011.11
2019-04-22T13:05:47.033Z,1011.00
2019-04-22T13:06:46.182Z,1011.12
2019-04-22T13:07:47.391Z,1011.02
2019-04-22T13:08:47.554Z,1011.20
2019-04-22T13:09:47.286Z,1011.16
2019-04-22T13:10:55.475Z,1011.15
2019-04-22T13:11:48.824Z,1011.25
2019-04-22T13:12:47.054Z,1011.19
2019-04-22T13:13:47.058Z,1011.12
2019-04-22T13:14:46.009Z,1011.19
2019-04-22T13:15:46.831Z,1011.14
2019-04-22T13:16:47.289Z,1011.13
2019-04-22T13:17:46.317Z,1011.08
2019-04-22T13:18:53.131Z,1011.14
2019-04-22T13:19:47.859Z,1011.15
2019-04-22T13:20:46.383Z,1011.09
2019-04-22T13:21:46.821Z,1011.15
2019-04-22T13:22:45.938Z,1010.96
2019-04-22T13:23:46.643Z,1011.11
2019-04-22T13:24:45.919Z,1011.12
2019-04-22T13:25:47.157Z,1011.01
2019-04-22T13:26:45.910Z,1011.05
2019-04-22T13:27:46.819Z,1011.04
2019-04-22T13:28:47.195Z,1010.93
2019-04-22T13:29:46.824Z,1010.88
2019-04-22T13:30:46.524Z,1010.93
2019-04-22T13:31:46.576Z,1010.97
2019-04-22T13:32:47.119Z,1011.00
2019-04-22T13:33:46.681Z,1010.92
2019-04-22T13:34:51.513Z,1011.03
2019-04-22T13:35:48.029Z,1010.97
2019-04-22T13:36:47.043Z,1011.02
2019-04-22T13:37:46.785Z,1010.93
2019-04-22T13:38:46.812Z,1010.95
2019-04-22T13:39:46.980Z,1010.86
2019-04-22T13:41:02.221Z,1010.89
2019-04-22T13:41:52.188Z,1010.86
2019-04-22T13:42:46.862Z,1010.81
2019-04-22T13:43:47.163Z,1010.98
2019-04-22T13:44:46.150Z,1011.03
2019-04-22T13:45:45.797Z,1010.90
2019-04-22T13:47:03.779Z,1010.91
2019-04-22T13:48:01.537Z,1010.91
2019-04-22T13:49:17.833Z,1010.94
2019-04-22T13:50:34.547Z,1010.91
2019-04-22T13:51:13.224Z,1010.93
2019-04-22T13:52:20.652Z,1011.01
2019-04-22T13:54:18.847Z,1010.91
2019-04-22T13:54:42.286Z,1010.89
2019-04-22T13:55:15.909Z,1010.86
2019-04-22T13:56:10.448Z,1010.96
2019-04-22T13:57:03.693Z,1010.93
2019-04-22T13:58:00.741Z,1011.01
2019-04-22T13:58:58.890Z,1010.96
2019-04-22T13:59:52.406Z,1010.93
2019-04-22T14:00:46.906Z,1010.98
2019-04-22T14:01:46.419Z,1010.99
2019-04-22T14:02:46.604Z,1011.03
2019-04-22T14:03:46.889Z,1011.02
2019-04-22T14:04:46.381Z,1011.00
2019-04-22T14:05:46.655Z,1011.01
2019-04-22T14:06:46.907Z,1011.05
2019-04-22T14:07:46.644Z,1010.99
2019-04-22T14:08:45.439Z,1011.01
2019-04-22T14:09:46.530Z,1011.04
2019-04-22T14:10:45.415Z,1011.05
2019-04-22T14:11:52.888Z,1010.91
2019-04-22T14:12:46.774Z,1010.91
2019-04-22T14:13:46.145Z,1010.91
2019-04-22T14:14:46.137Z,1010.83
2019-04-22T14:15:46.592Z,1010.82
2019-04-22T14:16:46.621Z,1010.91
2019-04-22T14:17:45.461Z,1010.92
2019-04-22T14:18:46.105Z,1011.00
2019-04-22T14:19:46.519Z,1010.88
2019-04-22T14:20:46.854Z,1010.94
2019-04-22T14:21:47.361Z,1010.84
2019-04-22T14:22:46.287Z,1010.88
2019-04-22T14:23:46.677Z,1010.88
2019-04-22T14:24:46.687Z,1010.89
2019-04-22T14:25:46.395Z,1010.94
2019-04-22T14:26:58.854Z,1010.82
2019-04-22T14:27:54.484Z,1010.85
2019-04-22T14:28:46.220Z,1010.88